Time;durP1;ratioP1;P1;durP2;ratioP2;P2;SDS_P1;SDS_P2;PMS_P1;PMS_P2;Temp;Humidity;BMP_temperature;BMP_pressure;BME280_temperature;BME280_humidity;BME280_pressure;Samples;Min_cycle;Max_cycle;Signal;HPM_P1;HPM_P2
2021/01/10 00:00:45;;;;;;;33.00;17.30;;;-2.80;99.90;;;;;;5042233;28;20041;-78
2021/01/10 00:03:17;;;;;;;32.60;16.83;;;-2.80;99.90;;;;;;5073900;28;20095;-78
2021/01/10 00:05:43;;;;;;;35.63;16.88;;;-2.90;99.90;;;;;;5041840;28;20052;-78
2021/01/10 00:08:10;;;;;;;33.58;17.40;;;-2.80;99.90;;;;;;5058136;28;20408;-78
2021/01/10 00:10:37;;;;;;;30.30;16.40;;;-2.90;99.90;;;;;;5041718;28;20048;-78
2021/01/10 00:13:05;;;;;;;29.48;14.77;;;-2.90;99.90;;;;;;5041441;28;20136;-78
2021/01/10 00:15:32;;;;;;;25.92;14.57;;;-2.90;99.90;;;;;;5075146;28;20045;-79
2021/01/10 00:18:05;;;;;;;29.63;12.98;;;-2.90;99.90;;;;;;5041800;28;20041;-78
2021/01/10 00:20:33;;;;;;;28.27;13.88;;;-2.90;99.90;;;;;;5074137;28;20041;-79
2021/01/10 00:23:02;;;;;;;24.30;14.43;;;-2.90;99.90;;;;;;5082759;28;20040;-78
2021/01/10 00:25:34;;;;;;;27.90;15.75;;;-2.90;99.90;;;;;;5094357;28;20044;-78
2021/01/10 00:28:01;;;;;;;25.80;14.02;;;-2.90;99.90;;;;;;5063128;28;20044;-78
2021/01/10 00:30:28;;;;;;;32.47;16.35;;;-2.80;99.90;;;;;;5060833;28;20045;-79
2021/01/10 00:32:56;;;;;;;25.00;14.35;;;-2.80;99.90;;;;;;5082974;28;20066;-78
2021/01/10 00:35:24;;;;;;;28.30;14.98;;;-2.80;99.90;;;;;;5080824;28;20511;-78
2021/01/10 00:37:57;;;;;;;29.63;15.75;;;-2.80;99.90;;;;;;5096965;28;20040;-79
2021/01/10 00:40:25;;;;;;;28.35;15.00;;;-2.70;99.90;;;;;;5080429;28;20522;-79
2021/01/10 00:42:51;;;;;;;28.05;15.15;;;-2.80;99.90;;;;;;5097919;28;20135;-78
2021/01/10 00:45:23;;;;;;;28.88;15.38;;;-2.70;99.90;;;;;;5080818;28;20118;-78
2021/01/10 00:47:54;;;;;;;29.20;14.85;;;-2.70;99.90;;;;;;5080528;28;20093;-78
2021/01/10 00:50:26;;;;;;;29.95;16.92;;;-2.80;99.90;;;;;;5091765;28;20127;-78
2021/01/10 00:52:54;;;;;;;26.25;14.82;;;-2.80;99.90;;;;;;5057428;28;20051;-79
2021/01/10 00:55:26;;;;;;;25.00;13.93;;;-2.80;99.90;;;;;;5055893;28;20037;-79
2021/01/10 00:57:53;;;;;;;27.05;14.07;;;-2.80;99.90;;;;;;5073828;28;20099;-78
2021/01/10 01:00:26;;;;;;;27.67;14.18;;;-2.70;99.90;;;;;;5057226;28;20068;-78
2021/01/10 01:02:53;;;;;;;27.88;13.23;;;-2.70;99.90;;;;;;5057034;28;20049;-78
2021/01/10 01:05:23;;;;;;;29.13;14.43;;;-2.70;99.90;;;;;;5056708;28;20049;-79
2021/01/10 01:07:51;;;;;;;30.67;14.45;;;-2.70;99.90;;;;;;5055917;28;20049;-78
2021/01/10 01:10:24;;;;;;;29.98;13.90;;;-2.70;99.90;;;;;;5055821;28;20117;-78
2021/01/10 01:12:50;;;;;;;26.08;14.52;;;-2.70;99.90;;;;;;5055584;28;20040;-78
2021/01/10 01:15:17;;;;;;;27.92;14.68;;;-2.70;99.90;;;;;;5039369;28;20095;-78
2021/01/10 01:17:44;;;;;;;24.40;13.35;;;-2.70;99.90;;;;;;5057746;28;20041;-78
2021/01/10 01:20:11;;;;;;;26.17;13.90;;;-2.60;99.90;;;;;;5056247;28;20052;-79
2021/01/10 01:22:37;;;;;;;26.83;13.93;;;-2.60;99.90;;;;;;5040031;28;20049;-78
2021/01/10 01:25:05;;;;;;;28.20;14.68;;;-2.70;99.90;;;;;;5039919;28;20056;-78
2021/01/10 01:27:34;;;;;;;24.13;13.50;;;-2.70;99.90;;;;;;5072661;28;20037;-78
2021/01/10 01:30:03;;;;;;;25.20;13.30;;;-2.70;99.90;;;;;;5040687;28;20545;-78
2021/01/10 01:32:35;;;;;;;27.75;14.05;;;-2.70;99.90;;;;;;5040407;28;20569;-78
2021/01/10 01:35:04;;;;;;;27.88;13.68;;;-2.70;99.90;;;;;;5039303;28;20140;-79
2021/01/10 01:37:30;;;;;;;28.15;14.27;;;-2.70;99.90;;;;;;5056669;28;20052;-78
2021/01/10 01:40:05;;;;;;;23.05;12.55;;;-2.70;99.90;;;;;;5040196;28;20077;-78
2021/01/10 01:42:37;;;;;;;23.30;12.93;;;-2.70;99.90;;;;;;5040806;28;20131;-78
2021/01/10 01:45:09;;;;;;;29.10;13.18;;;-2.70;99.90;;;;;;5040186;28;20045;-78
2021/01/10 01:47:41;;;;;;;28.52;13.90;;;-2.70;99.90;;;;;;5055807;28;20041;-78
2021/01/10 01:50:08;;;;;;;24.63;12.88;;;-2.60;99.90;;;;;;5039659;28;20055;-78
2021/01/10 01:52:35;;;;;;;27.60;15.27;;;-2.60;99.90;;;;;;5055977;28;20041;-78
2021/01/10 01:55:04;;;;;;;27.35;14.45;;;-2.60;99.90;;;;;;5072386;28;20455;-78
2021/01/10 01:57:30;;;;;;;24.85;13.43;;;-2.60;99.90;;;;;;5072606;28;20042;-78
2021/01/10 02:00:03;;;;;;;26.15;12.80;;;-2.70;99.90;;;;;;5055885;28;20045;-78
2021/01/10 02:02:42;;;;;;;26.02;12.57;;;-2.70;99.90;;;;;;5071124;28;20045;-80
2021/01/10 02:05:13;;;;;;;24.17;13.98;;;-2.60;99.90;;;;;;5055760;28;20048;-78
2021/01/10 02:08:07;;;;;;;24.83;13.38;;;-2.60;99.90;;;;;;5055671;28;20152;-81
2021/01/10 02:10:41;;;;;;;26.90;12.95;;;-2.60;99.90;;;;;;5055660;28;20052;-78
2021/01/10 02:13:15;;;;;;;27.42;13.93;;;-2.60;99.90;;;;;;5055646;28;20056;-78
2021/01/10 02:15:44;;;;;;;30.25;14.25;;;-2.60;99.90;;;;;;5055709;28;20148;-79
2021/01/10 02:18:18;;;;;;;27.35;13.40;;;-2.60;99.90;;;;;;5055076;28;20470;-78
2021/01/10 02:20:46;;;;;;;25.73;12.23;;;-2.50;99.90;;;;;;5055083;28;20538;-78
2021/01/10 02:23:25;;;;;;;26.42;12.93;;;-2.60;99.90;;;;;;5039558;28;20061;-78
2021/01/10 02:25:56;;;;;;;23.63;13.05;;;-2.50;99.90;;;;;;5071646;28;20060;-78
2021/01/10 02:28:25;;;;;;;24.67;12.52;;;-2.50;99.90;;;;;;5038784;28;20102;-78
2021/01/10 02:30:54;;;;;;;20.73;11.48;;;-2.50;99.90;;;;;;5071800;28;20072;-78
2021/01/10 02:33:45;;;;;;;26.52;12.88;;;-2.40;99.90;;;;;;5039420;28;20094;-78
2021/01/10 02:36:38;;;;;;;24.98;12.23;;;-2.40;99.90;;;;;;5055518;28;20064;-79
2021/01/10 02:39:23;;;;;;;25.80;12.95;;;-2.40;99.90;;;;;;5055271;28;20589;-78
2021/01/10 02:42:22;;;;;;;21.20;12.48;;;-2.40;99.90;;;;;;5055345;28;20087;-78
2021/01/10 02:45:06;;;;;;;26.50;12.10;;;-2.40;99.90;;;;;;5055610;28;20060;-78
2021/01/10 02:47:34;;;;;;;21.35;11.85;;;-2.40;99.90;;;;;;5055133;28;20068;-78
2021/01/10 02:50:08;;;;;;;25.27;13.35;;;-2.40;99.90;;;;;;5039676;28;20045;-80
2021/01/10 02:52:35;;;;;;;25.48;12.93;;;-2.40;99.90;;;;;;5055431;28;20040;-78
2021/01/10 02:55:07;;;;;;;26.83;13.65;;;-2.40;99.90;;;;;;5055376;28;20421;-78
2021/01/10 02:57:37;;;;;;;24.80;12.27;;;-2.40;99.90;;;;;;5055618;28;20419;-79
2021/01/10 03:00:07;;;;;;;27.05;14.15;;;-2.40;99.90;;;;;;5038832;28;20056;-78
2021/01/10 03:02:37;;;;;;;23.85;13.30;;;-2.40;99.90;;;;;;5038793;28;20411;-78
2021/01/10 03:05:05;;;;;;;24.58;13.95;;;-2.40;99.90;;;;;;5038125;28;20044;-79
2021/01/10 03:07:34;;;;;;;23.98;12.68;;;-2.40;99.90;;;;;;5054921;28;20450;-78
2021/01/10 03:10:09;;;;;;;20.55;11.60;;;-2.40;99.90;;;;;;5039041;28;20052;-78
2021/01/10 03:12:36;;;;;;;24.00;11.93;;;-2.50;99.90;;;;;;5038621;28;20048;-79
2021/01/10 03:15:09;;;;;;;21.75;11.50;;;-2.60;99.90;;;;;;5054594;28;20091;-78
2021/01/10 03:17:37;;;;;;;21.30;11.25;;;-2.70;99.90;;;;;;5037513;28;20045;-80
2021/01/10 03:20:14;;;;;;;20.80;11.07;;;-2.70;99.90;;;;;;5054517;28;20052;-78
2021/01/10 03:22:47;;;;;;;20.92;11.05;;;-2.80;99.90;;;;;;5055527;28;20736;-78
2021/01/10 03:25:19;;;;;;;20.83;10.80;;;-2.80;99.90;;;;;;5054652;28;20055;-78
2021/01/10 03:27:46;;;;;;;20.58;10.35;;;-2.90;99.90;;;;;;5037946;28;20117;-78
2021/01/10 03:30:16;;;;;;;21.33;11.70;;;-2.90;99.90;;;;;;5054287;28;20060;-80
2021/01/10 03:32:49;;;;;;;19.13;10.00;;;-3.00;99.90;;;;;;5071711;28;20095;-78
2021/01/10 03:35:21;;;;;;;18.20;10.43;;;-3.10;99.90;;;;;;5054974;28;20037;-79
2021/01/10 03:37:56;;;;;;;20.60;10.90;;;-3.20;99.90;;;;;;5042534;28;20295;-78
2021/01/10 03:40:28;;;;;;;20.83;10.85;;;-3.20;99.90;;;;;;5058543;28;20087;-78
2021/01/10 03:42:55;;;;;;;18.63;11.02;;;-3.30;99.90;;;;;;5058461;28;20443;-78
2021/01/10 03:45:27;;;;;;;20.15;11.73;;;-3.30;99.90;;;;;;5058302;28;20044;-80
2021/01/10 03:47:59;;;;;;;19.33;9.98;;;-3.30;99.90;;;;;;5074340;28;20112;-78
2021/01/10 03:50:30;;;;;;;19.20;10.57;;;-3.30;99.90;;;;;;5058058;28;20047;-78
2021/01/10 03:53:02;;;;;;;19.38;11.43;;;-3.40;99.90;;;;;;5042390;28;20455;-78
2021/01/10 03:55:29;;;;;;;20.40;10.63;;;-3.40;99.90;;;;;;5074598;28;20431;-80
2021/01/10 03:58:01;;;;;;;18.50;9.65;;;-3.40;99.90;;;;;;5042112;28;20045;-78
2021/01/10 04:00:28;;;;;;;20.75;11.02;;;-3.50;99.90;;;;;;5057814;28;20056;-78
2021/01/10 04:02:55;;;;;;;20.33;10.13;;;-3.50;99.90;;;;;;5057852;28;20044;-78
2021/01/10 04:05:22;;;;;;;17.65;9.60;;;-3.60;99.90;;;;;;5027218;22;20045;-78
2021/01/10 04:07:54;;;;;;;15.82;8.82;;;-3.60;99.90;;;;;;5034438;28;20041;-78
2021/01/10 04:10:26;;;;;;;17.38;8.40;;;-3.70;99.90;;;;;;5033405;28;20421;-79
2021/01/10 04:12:53;;;;;;;18.67;9.38;;;-3.70;99.90;;;;;;5017876;28;20096;-78
2021/01/10 04:15:28;;;;;;;18.38;9.35;;;-3.70;99.90;;;;;;5014334;28;20054;-79
2021/01/10 04:17:59;;;;;;;17.02;9.07;;;-3.80;99.90;;;;;;4998060;28;20506;-78
2021/01/10 04:20:31;;;;;;;17.33;9.10;;;-3.90;99.90;;;;;;5014080;28;20462;-78
2021/01/10 04:22:58;;;;;;;14.82;8.98;;;-4.00;99.90;;;;;;5014253;28;20047;-80
2021/01/10 04:25:25;;;;;;;16.00;8.73;;;-4.00;99.90;;;;;;5014383;28;20464;-78
2021/01/10 04:27:57;;;;;;;16.73;8.68;;;-4.10;99.90;;;;;;4997557;28;20043;-78
2021/01/10 04:30:30;;;;;;;16.02;8.95;;;-4.10;99.90;;;;;;5013867;28;20053;-78
2021/01/10 04:32:57;;;;;;;20.17;10.20;;;-4.10;99.90;;;;;;4981930;28;20092;-78
2021/01/10 04:41:17;;;;;;;17.88;8.35;;;-4.20;99.90;;;;;;5425354;23;20054;-80
2021/01/10 04:47:03;;;;;;;;;;;-4.30;99.90;;;;;;5630644;23;20041;-79
2021/01/10 04:49:36;;;;;;;16.10;8.55;;;-4.30;99.90;;;;;;4866472;29;19932;-79
2021/01/10 04:52:06;;;;;;;16.77;8.65;;;-4.40;99.90;;;;;;4851904;29;20051;-79
2021/01/10 05:09:20;;;;;;;18.92;9.18;;;-4.50;99.90;;;;;;5743921;23;20120;-78
2021/01/10 05:11:51;;;;;;;17.52;9.48;;;-4.60;99.90;;;;;;4852296;29;20048;-78
2021/01/10 05:14:18;;;;;;;21.08;10.20;;;-4.50;99.90;;;;;;4866725;29;20049;-78
2021/01/10 05:16:45;;;;;;;20.58;9.95;;;-4.50;99.90;;;;;;4866739;29;20053;-78
2021/01/10 05:19:12;;;;;;;21.58;11.20;;;-4.50;99.90;;;;;;4851090;29;20472;-78
2021/01/10 05:21:41;;;;;;;22.98;10.85;;;-4.60;99.90;;;;;;4883269;29;20057;-78
2021/01/10 05:36:30;;;;;;;16.85;9.27;;;-4.80;99.90;;;;;;5198128;23;20064;-79
2021/01/10 05:39:22;;;;;;;18.50;8.38;;;-4.80;99.90;;;;;;4870905;29;20045;-79
2021/01/10 05:42:02;;;;;;;15.70;9.40;;;-4.90;99.90;;;;;;4876128;29;20048;-79
2021/01/10 05:44:39;;;;;;;15.63;7.85;;;-4.90;99.90;;;;;;4861249;29;20047;-79
2021/01/10 05:47:14;;;;;;;14.95;8.18;;;-4.90;99.90;;;;;;4876278;29;20068;-79
2021/01/10 05:49:49;;;;;;;15.85;8.43;;;-4.90;99.90;;;;;;4875906;29;20056;-79
2021/01/10 05:52:22;;;;;;;17.45;10.18;;;-4.90;99.90;;;;;;4860983;29;20049;-79
2021/01/10 05:54:53;;;;;;;14.75;7.88;;;-4.90;99.90;;;;;;4875894;29;20135;-79
2021/01/10 05:57:28;;;;;;;19.42;9.55;;;-4.90;99.90;;;;;;4876190;29;20045;-79
2021/01/10 06:00:01;;;;;;;17.00;8.60;;;-4.90;99.90;;;;;;4875370;29;20143;-79
2021/01/10 06:02:33;;;;;;;20.83;10.50;;;-4.90;99.90;;;;;;4875576;29;20053;-79
2021/01/10 06:05:13;;;;;;;19.30;9.57;;;-5.00;99.90;;;;;;4875655;29;20532;-79
2021/01/10 06:07:47;;;;;;;20.67;10.77;;;-5.00;99.90;;;;;;4860779;29;20153;-79
2021/01/10 06:10:27;;;;;;;15.20;7.70;;;-5.00;99.90;;;;;;4860995;29;20047;-79
2021/01/10 06:13:03;;;;;;;22.10;11.02;;;-5.00;99.90;;;;;;4875741;29;20041;-79
2021/01/10 06:15:35;;;;;;;22.20;11.63;;;-5.00;99.90;;;;;;4875763;29;20152;-79
2021/01/10 06:18:06;;;;;;;22.80;13.57;;;-5.00;99.90;;;;;;4876544;29;20045;-79
2021/01/10 06:20:38;;;;;;;20.70;10.48;;;-4.90;99.90;;;;;;4875595;29;20052;-79
2021/01/10 06:23:10;;;;;;;21.98;10.60;;;-4.90;99.90;;;;;;4875873;29;20049;-79
2021/01/10 06:25:43;;;;;;;21.80;10.88;;;-4.80;99.90;;;;;;4875474;29;20053;-79
2021/01/10 06:28:19;;;;;;;21.58;10.23;;;-4.80;99.90;;;;;;4867607;29;20049;-79
2021/01/10 06:30:54;;;;;;;27.75;11.65;;;-4.80;99.90;;;;;;4862646;29;20049;-78
2021/01/10 06:33:32;;;;;;;25.75;13.50;;;-4.80;99.90;;;;;;4849192;29;20047;-78
2021/01/10 06:36:04;;;;;;;27.15;13.75;;;-4.70;99.90;;;;;;4854124;29;20041;-79
2021/01/10 06:38:35;;;;;;;27.60;12.85;;;-4.70;99.90;;;;;;4855612;29;20669;-79
2021/01/10 06:41:19;;;;;;;35.85;15.35;;;-4.70;99.90;;;;;;4847583;29;20045;-79
2021/01/10 06:43:57;;;;;;;31.85;14.77;;;-4.60;99.90;;;;;;4870783;29;20051;-79
2021/01/10 06:46:24;;;;;;;36.08;16.45;;;-4.50;99.90;;;;;;4849082;29;20080;-79
2021/01/10 06:48:56;;;;;;;30.00;13.98;;;-4.50;99.90;;;;;;4854876;29;20079;-78
2021/01/10 06:51:25;;;;;;;31.63;14.27;;;-4.40;99.90;;;;;;4848343;29;20049;-79
2021/01/10 06:54:03;;;;;;;28.58;13.35;;;-4.40;99.90;;;;;;4874927;29;20045;-79
2021/01/10 06:56:30;;;;;;;31.43;12.80;;;-4.30;99.90;;;;;;4866141;29;20136;-78
2021/01/10 06:59:10;;;;;;;27.00;12.63;;;-4.30;99.90;;;;;;4851221;29;20089;-79
2021/01/10 07:01:47;;;;;;;30.65;12.35;;;-4.30;99.90;;;;;;4860409;29;20049;-78
2021/01/10 07:04:15;;;;;;;28.73;13.07;;;-4.30;99.90;;;;;;4855900;29;20057;-78
2021/01/10 07:06:50;;;;;;;26.08;12.90;;;-4.20;99.90;;;;;;4858652;29;20141;-79
2021/01/10 07:09:22;;;;;;;23.98;11.27;;;-4.20;99.90;;;;;;4866842;29;20041;-79
2021/01/10 07:11:53;;;;;;;25.73;11.55;;;-4.10;99.90;;;;;;4866377;29;20049;-79
2021/01/10 07:14:22;;;;;;;27.33;12.40;;;-4.10;99.90;;;;;;4857913;29;20086;-79
2021/01/10 07:16:49;;;;;;;27.77;12.32;;;-4.10;99.90;;;;;;4861292;29;20075;-79
2021/01/10 07:19:21;;;;;;;26.25;11.70;;;-4.00;99.90;;;;;;4870474;29;20079;-79
2021/01/10 07:21:52;;;;;;;24.63;11.48;;;-4.00;99.90;;;;;;4882040;29;20036;-79
2021/01/10 07:24:23;;;;;;;28.05;12.15;;;-3.90;99.90;;;;;;4866097;29;20152;-78
2021/01/10 07:26:59;;;;;;;25.95;11.65;;;-3.90;99.90;;;;;;4880737;29;20059;-79
2021/01/10 07:29:32;;;;;;;22.52;11.02;;;-3.90;99.90;;;;;;4865227;29;20153;-78
2021/01/10 07:32:07;;;;;;;22.58;10.13;;;-3.80;99.90;;;;;;4880895;29;20501;-78
2021/01/10 07:34:35;;;;;;;26.02;11.27;;;-3.80;99.90;;;;;;4865318;29;20131;-78
2021/01/10 07:37:06;;;;;;;22.92;11.05;;;-3.70;99.90;;;;;;4865975;29;20052;-78
2021/01/10 07:39:52;;;;;;;25.30;12.38;;;-3.70;99.90;;;;;;4880453;29;20534;-78
2021/01/10 07:42:28;;;;;;;29.27;12.15;;;-3.60;99.90;;;;;;4861322;29;20055;-78
2021/01/10 07:45:03;;;;;;;28.48;13.30;;;-3.60;99.90;;;;;;4861936;29;20564;-78
2021/01/10 07:47:35;;;;;;;21.92;10.93;;;-3.60;99.90;;;;;;4878976;29;20138;-78
2021/01/10 07:50:26;;;;;;;27.10;11.98;;;-3.50;99.90;;;;;;4861650;29;20051;-79
2021/01/10 07:52:58;;;;;;;26.88;11.65;;;-3.50;99.90;;;;;;4846694;29;20069;-78
2021/01/10 07:55:29;;;;;;;28.73;13.98;;;-3.50;99.90;;;;;;4861841;29;20173;-79
2021/01/10 07:58:00;;;;;;;27.73;12.57;;;-3.50;99.90;;;;;;4861665;29;20138;-79
2021/01/10 08:00:34;;;;;;;25.60;12.50;;;-3.40;99.90;;;;;;4847250;29;20083;-78
2021/01/10 08:03:07;;;;;;;27.23;13.25;;;-3.40;99.90;;;;;;4851138;29;20045;-79
2021/01/10 08:05:54;;;;;;;21.20;9.93;;;-3.40;99.90;;;;;;4861665;29;20132;-79
2021/01/10 08:08:41;;;;;;;35.55;18.00;;;-3.40;99.90;;;;;;4860992;29;20041;-79
2021/01/10 08:11:34;;;;;;;32.90;18.42;;;-3.40;99.90;;;;;;4861302;29;20529;-78
2021/01/10 08:14:11;;;;;;;30.90;17.38;;;-3.40;99.90;;;;;;4846701;29;20049;-79
2021/01/10 08:16:42;;;;;;;34.22;16.55;;;-3.40;99.90;;;;;;4846622;29;20048;-79
2021/01/10 08:19:08;;;;;;;32.65;14.15;;;-3.40;99.90;;;;;;4877488;29;20493;-79
2021/01/10 08:21:40;;;;;;;31.35;14.63;;;-3.30;99.90;;;;;;4877990;29;20063;-79
2021/01/10 08:24:14;;;;;;;22.70;12.30;;;-3.30;99.90;;;;;;4846363;29;20427;-79
2021/01/10 08:26:46;;;;;;;30.27;13.95;;;-3.30;99.90;;;;;;4846719;29;20045;-78
2021/01/10 08:29:21;;;;;;;24.83;13.32;;;-3.30;99.90;;;;;;4877557;29;20049;-79
2021/01/10 08:31:50;;;;;;;26.48;15.32;;;-3.30;99.90;;;;;;4845868;29;20424;-79
2021/01/10 08:34:21;;;;;;;35.25;17.35;;;-3.30;99.90;;;;;;4846310;29;20049;-78
2021/01/10 08:36:53;;;;;;;31.85;16.60;;;-3.30;99.90;;;;;;4849083;29;20393;-78
2021/01/10 08:39:24;;;;;;;32.22;14.50;;;-3.30;99.90;;;;;;4865076;29;20047;-79
2021/01/10 08:41:51;;;;;;;28.92;14.77;;;-3.30;99.90;;;;;;4865391;29;20049;-80
2021/01/10 08:44:21;;;;;;;23.80;13.00;;;-3.30;99.90;;;;;;4849453;29;20089;-79
2021/01/10 08:46:52;;;;;;;30.80;13.23;;;-3.30;99.90;;;;;;4863539;29;20504;-79
2021/01/10 08:49:27;;;;;;;28.88;13.93;;;-3.30;99.90;;;;;;4848412;29;20045;-79
2021/01/10 08:52:04;;;;;;;29.30;13.80;;;-3.30;99.90;;;;;;4848657;29;20060;-79
2021/01/10 08:54:35;;;;;;;23.02;13.77;;;-3.20;99.90;;;;;;4850805;29;20408;-78
2021/01/10 08:57:08;;;;;;;29.73;14.82;;;-3.10;99.90;;;;;;4850618;29;20049;-78
2021/01/10 08:59:39;;;;;;;30.02;13.38;;;-3.20;99.90;;;;;;4864437;29;20057;-79
2021/01/10 09:02:08;;;;;;;25.55;13.43;;;-3.10;99.90;;;;;;4863814;29;20549;-79
2021/01/10 09:04:44;;;;;;;26.90;13.40;;;-3.10;99.90;;;;;;4863170;29;20144;-78
2021/01/10 09:07:24;;;;;;;27.25;12.40;;;-3.10;99.90;;;;;;4848088;29;20124;-78
2021/01/10 09:10:08;;;;;;;25.98;13.45;;;-3.10;99.90;;;;;;4848268;29;20045;-79
2021/01/10 09:12:39;;;;;;;27.77;12.60;;;-3.10;99.90;;;;;;4863062;29;20453;-78
2021/01/10 09:15:18;;;;;;;25.10;11.27;;;-3.00;99.90;;;;;;4848435;29;20057;-78
2021/01/10 09:17:52;;;;;;;25.63;11.77;;;-3.00;99.90;;;;;;4862833;29;20144;-79
2021/01/10 09:20:32;;;;;;;29.52;12.90;;;-3.00;99.90;;;;;;4848077;29;20052;-79
2021/01/10 09:23:10;;;;;;;28.77;13.23;;;-2.90;99.90;;;;;;4863600;29;20053;-79
2021/01/10 09:25:42;;;;;;;25.35;13.25;;;-2.90;99.90;;;;;;4847818;29;20080;-79
2021/01/10 09:28:13;;;;;;;24.98;13.52;;;-2.90;99.90;;;;;;4847246;29;20049;-79
2021/01/10 09:30:54;;;;;;;26.85;12.20;;;-2.80;99.90;;;;;;4863187;29;20041;-79
2021/01/10 09:33:27;;;;;;;25.13;12.73;;;-2.80;99.90;;;;;;4847799;29;20049;-79
2021/01/10 09:35:56;;;;;;;25.60;12.15;;;-2.70;99.90;;;;;;4861698;29;20141;-78
2021/01/10 09:38:28;;;;;;;27.48;14.88;;;-2.70;99.90;;;;;;4862296;29;20068;-79
2021/01/10 09:41:09;;;;;;;30.50;15.23;;;-2.70;99.90;;;;;;4847025;29;20053;-80
2021/01/10 09:43:43;;;;;;;32.42;13.93;;;-2.70;99.90;;;;;;4862060;29;20127;-79
2021/01/10 09:46:35;;;;;;;39.22;18.70;;;-2.70;99.90;;;;;;4862269;29;20145;-79
2021/01/10 09:49:20;;;;;;;41.95;20.40;;;-2.60;99.90;;;;;;4861941;29;20053;-79
2021/01/10 09:52:10;;;;;;;41.40;18.60;;;-2.50;99.90;;;;;;4847410;29;20484;-78
2021/01/10 09:54:37;;;;;;;31.08;13.93;;;-2.50;99.90;;;;;;4861974;29;20045;-80
2021/01/10 09:57:09;;;;;;;34.72;16.70;;;-2.40;99.90;;;;;;4847323;29;20513;-78
2021/01/10 09:59:40;;;;;;;28.50;15.55;;;-2.30;99.90;;;;;;4844021;29;20049;-77
2021/01/10 10:02:49;;;;;;;30.50;15.95;;;-2.20;99.90;;;;;;4840593;29;20050;-77
2021/01/10 10:05:27;;;;;;;48.35;21.52;;;-2.10;99.90;;;;;;4802625;29;20128;-76
2021/01/10 10:08:03;;;;;;;33.88;16.48;;;-2.10;99.90;;;;;;4837609;29;20057;-77
2021/01/10 10:10:33;;;;;;;27.95;13.60;;;-2.00;99.90;;;;;;4840032;29;20428;-76
2021/01/10 10:13:04;;;;;;;35.25;16.98;;;-2.10;99.90;;;;;;4825284;29;20049;-77
2021/01/10 10:15:45;;;;;;;33.10;15.95;;;-2.00;99.90;;;;;;4840032;29;20053;-76
2021/01/10 10:18:19;;;;;;;33.65;16.23;;;-2.00;99.90;;;;;;4839779;29;20050;-77
2021/01/10 10:20:51;;;;;;;27.50;14.27;;;-1.90;99.90;;;;;;4840163;29;20054;-77
2021/01/10 10:23:22;;;;;;;26.00;13.13;;;-1.90;99.90;;;;;;4843805;29;20053;-79
2021/01/10 10:25:53;;;;;;;25.35;12.65;;;-1.90;99.90;;;;;;4841835;29;20055;-78
2021/01/10 10:28:25;;;;;;;24.50;11.95;;;-1.80;99.90;;;;;;4840993;29;20524;-78
2021/01/10 10:30:56;;;;;;;22.23;11.50;;;-1.80;99.90;;;;;;4866295;29;20217;-78
2021/01/10 10:33:27;;;;;;;26.05;15.20;;;-1.70;99.90;;;;;;4862602;29;20132;-78
2021/01/10 10:35:58;;;;;;;23.58;11.93;;;-1.70;99.90;;;;;;4877487;29;20041;-79
2021/01/10 10:38:31;;;;;;;20.45;12.13;;;-1.60;99.90;;;;;;4877356;29;20143;-78
2021/01/10 10:41:02;;;;;;;22.08;11.15;;;-1.50;99.90;;;;;;4862778;29;20169;-79
2021/01/10 10:43:33;;;;;;;20.92;10.35;;;-1.40;99.90;;;;;;4862775;29;20139;-78
2021/01/10 10:46:04;;;;;;;22.95;10.90;;;-1.40;99.90;;;;;;4853070;29;20049;-78
2021/01/10 10:48:36;;;;;;;20.60;11.20;;;-1.30;99.90;;;;;;4868348;29;20120;-79
2021/01/10 10:51:07;;;;;;;23.63;13.65;;;-1.20;99.90;;;;;;4877156;29;20065;-78
2021/01/10 10:53:38;;;;;;;23.50;14.57;;;-1.20;99.90;;;;;;4852141;29;20129;-79
2021/01/10 10:56:09;;;;;;;18.75;10.88;;;-1.20;99.90;;;;;;4848275;29;20489;-78
2021/01/10 10:58:41;;;;;;;24.30;13.35;;;-1.10;99.90;;;;;;4846877;29;20080;-78
2021/01/10 11:01:12;;;;;;;23.42;12.27;;;-1.10;99.90;;;;;;4863317;29;20045;-78
2021/01/10 11:03:43;;;;;;;22.27;11.90;;;-1.10;99.90;;;;;;4847547;29;20143;-78
2021/01/10 11:06:14;;;;;;;30.40;15.38;;;-1.10;99.90;;;;;;4866488;29;20131;-79
2021/01/10 11:08:41;;;;;;;23.00;12.63;;;-1.10;99.90;;;;;;4865126;29;20140;-79
2021/01/10 11:11:12;;;;;;;23.63;12.38;;;-1.20;99.90;;;;;;4881276;29;20127;-78
2021/01/10 11:13:43;;;;;;;25.65;12.25;;;-1.20;99.90;;;;;;4882527;29;20044;-79
2021/01/10 11:16:18;;;;;;;22.30;13.57;;;-1.20;99.90;;;;;;4856664;29;20049;-79
2021/01/10 11:18:49;;;;;;;26.45;14.05;;;-1.30;99.90;;;;;;4862944;29;20053;-79
2021/01/10 11:21:15;;;;;;;21.83;12.60;;;-1.20;99.90;;;;;;4847613;29;20053;-79
2021/01/10 11:23:50;;;;;;;24.35;12.90;;;-1.30;99.90;;;;;;4847619;29;20763;-78
2021/01/10 11:26:21;;;;;;;25.73;13.90;;;-1.30;99.90;;;;;;4862333;29;20053;-79
2021/01/10 11:28:53;;;;;;;25.75;13.63;;;-1.30;99.90;;;;;;4858144;29;20044;-78
2021/01/10 11:31:25;;;;;;;24.85;13.70;;;-1.30;99.90;;;;;;4866103;29;20135;-79
2021/01/10 11:33:56;;;;;;;26.27;13.48;;;-1.30;99.90;;;;;;4866114;29;20141;-78
2021/01/10 11:36:28;;;;;;;23.42;13.10;;;-1.30;99.90;;;;;;4858205;29;20512;-79
2021/01/10 11:38:59;;;;;;;26.80;12.52;;;-1.20;99.90;;;;;;4865794;29;20580;-78
2021/01/10 11:41:30;;;;;;;22.10;11.20;;;-1.10;99.90;;;;;;4866070;29;20179;-79
2021/01/10 11:44:02;;;;;;;28.05;13.25;;;-1.00;99.90;;;;;;4881422;29;20501;-78
2021/01/10 11:46:33;;;;;;;25.80;12.57;;;-1.00;99.90;;;;;;4881358;29;20054;-78
2021/01/10 11:49:04;;;;;;;30.33;15.48;;;-1.00;99.90;;;;;;4857375;29;20049;-78
2021/01/10 11:51:35;;;;;;;25.95;14.55;;;-1.00;99.90;;;;;;4861314;29;20037;-78
2021/01/10 11:54:07;;;;;;;25.60;13.73;;;-1.00;99.90;;;;;;4855271;29;20069;-77
2021/01/10 11:56:42;;;;;;;24.90;12.90;;;-1.00;99.90;;;;;;4845710;29;20515;-78
2021/01/10 11:59:10;;;;;;;25.40;13.23;;;-1.00;99.90;;;;;;4851901;29;20522;-78
2021/01/10 12:01:43;;;;;;;22.55;12.10;;;-1.00;99.90;;;;;;4869688;29;20832;-78
2021/01/10 12:04:14;;;;;;;20.70;12.13;;;-0.90;99.90;;;;;;4846064;29;20049;-78
2021/01/10 12:06:45;;;;;;;23.58;12.00;;;-0.90;99.90;;;;;;4852480;29;20491;-78
2021/01/10 12:09:18;;;;;;;20.73;10.48;;;-0.80;99.90;;;;;;4868632;29;20049;-79
2021/01/10 12:11:49;;;;;;;23.40;11.90;;;-0.80;99.90;;;;;;4858716;29;20081;-78
2021/01/10 12:14:20;;;;;;;25.55;12.13;;;-0.80;99.90;;;;;;4852312;29;20485;-79
2021/01/10 12:16:52;;;;;;;22.95;12.68;;;-0.80;99.90;;;;;;4850218;29;20049;-79
2021/01/10 12:19:23;;;;;;;21.40;10.77;;;-0.80;99.90;;;;;;4850383;29;20052;-79
2021/01/10 12:21:55;;;;;;;22.88;11.77;;;-0.90;99.90;;;;;;4850457;29;20075;-78
2021/01/10 12:24:27;;;;;;;21.60;10.13;;;-0.90;99.90;;;;;;4851418;29;20055;-78
2021/01/10 12:26:58;;;;;;;23.35;11.45;;;-0.90;99.90;;;;;;4865568;29;20056;-79
2021/01/10 12:29:29;;;;;;;20.00;10.52;;;-0.80;99.90;;;;;;4850951;29;20049;-79
2021/01/10 12:32:00;;;;;;;21.55;10.75;;;-0.80;99.90;;;;;;4865058;29;20056;-79
2021/01/10 12:34:31;;;;;;;19.33;12.23;;;-0.80;99.90;;;;;;4850068;29;20045;-79
2021/01/10 12:36:58;;;;;;;20.80;11.18;;;-0.70;99.90;;;;;;4849352;29;20063;-79
2021/01/10 12:39:29;;;;;;;20.67;10.65;;;-0.70;99.90;;;;;;4850556;29;20152;-79
2021/01/10 12:41:55;;;;;;;22.90;12.02;;;-0.70;99.90;;;;;;4847445;29;20048;-78
2021/01/10 12:44:27;;;;;;;22.75;11.65;;;-0.50;99.90;;;;;;4848949;29;20045;-79
2021/01/10 12:46:58;;;;;;;19.80;10.20;;;-0.20;99.90;;;;;;4848762;29;20048;-79
2021/01/10 12:49:29;;;;;;;21.80;10.80;;;-0.10;99.90;;;;;;4848697;29;20076;-78
2021/01/10 12:51:55;;;;;;;21.65;12.55;;;-0.10;99.90;;;;;;4863712;29;20101;-79
2021/01/10 12:54:26;;;;;;;26.60;14.13;;;-0.20;99.90;;;;;;4849063;29;20051;-79
2021/01/10 12:56:52;;;;;;;26.65;13.45;;;-0.20;99.90;;;;;;4848684;29;20112;-79
2021/01/10 12:59:24;;;;;;;23.15;12.48;;;-0.30;99.90;;;;;;4849239;29;20063;-79
2021/01/10 13:01:55;;;;;;;21.55;12.13;;;-0.30;99.90;;;;;;4849208;29;20052;-79
2021/01/10 13:04:26;;;;;;;20.85;11.70;;;-0.30;99.90;;;;;;4863589;29;20060;-79
2021/01/10 13:07:00;;;;;;;20.08;11.73;;;-0.40;99.90;;;;;;4848645;29;20182;-79
2021/01/10 13:09:34;;;;;;;19.50;10.80;;;-0.30;99.90;;;;;;4847750;29;20055;-79
2021/01/10 13:12:08;;;;;;;19.90;10.57;;;-0.30;99.90;;;;;;4864161;29;20063;-79
2021/01/10 13:14:39;;;;;;;20.50;11.13;;;-0.30;99.90;;;;;;4848470;29;20041;-79
2021/01/10 13:17:10;;;;;;;21.95;12.15;;;-0.20;99.90;;;;;;4848666;29;20076;-79
2021/01/10 13:19:42;;;;;;;23.00;12.63;;;-0.30;99.90;;;;;;4848476;29;20049;-78
2021/01/10 13:22:13;;;;;;;25.10;12.88;;;-0.20;99.90;;;;;;4863193;29;20045;-79
2021/01/10 13:24:44;;;;;;;28.13;14.82;;;-0.10;99.90;;;;;;4879669;29;20055;-79
2021/01/10 13:27:15;;;;;;;28.95;15.00;;;-0.20;99.90;;;;;;4848639;29;20048;-79
2021/01/10 13:29:48;;;;;;;30.50;13.43;;;-0.20;99.90;;;;;;4848134;29;20049;-79